createdAt,value
2022-11-05T00:15:07.943Z,3
2022-11-05T00:43:34.159Z,2
2022-11-05T01:12:02.322Z,3
2022-11-05T01:40:31.516Z,3
2022-11-05T02:08:59.214Z,3
2022-11-05T02:37:28.870Z,3
2022-11-05T03:05:56.353Z,1
2022-11-05T03:34:24.713Z,3
2022-11-05T04:02:53.174Z,3
2022-11-05T04:31:22.263Z,3
2022-11-05T04:59:51.337Z,1
2022-11-05T05:28:21.018Z,1
2022-11-05T05:56:49.406Z,2
2022-11-05T06:25:20.853Z,2
2022-11-05T06:53:56.134Z,1
2022-11-05T07:22:29.870Z,1
2022-11-05T07:51:00.714Z,1
2022-11-05T08:19:29.870Z,21
2022-11-05T08:47:56.970Z,12
2022-11-05T09:16:28.566Z,10
2022-11-05T09:44:59.876Z,9
2022-11-05T10:13:31.076Z,9
2022-11-05T10:42:00.915Z,9
2022-11-05T11:10:30.799Z,9
2022-11-05T11:38:58.068Z,7
2022-11-05T12:07:27.902Z,8
2022-11-05T12:35:58.125Z,7
2022-11-05T13:04:29.394Z,7
2022-11-05T13:33:02.306Z,7
2022-11-05T14:01:35.289Z,6
2022-11-05T14:30:03.977Z,6
2022-11-05T14:58:31.115Z,6
2022-11-05T15:27:03.697Z,5
2022-11-05T15:55:33.951Z,6
2022-11-05T16:24:05.014Z,6
2022-11-05T16:52:37.088Z,6
2022-11-05T17:21:05.587Z,21
2022-11-05T17:49:37.301Z,21
2022-11-05T18:18:09.084Z,23
2022-11-05T18:46:57.424Z,22
2022-11-05T19:15:04.230Z,25
2022-11-05T19:43:35.153Z,24
2022-11-05T20:12:05.070Z,24
2022-11-05T20:40:34.504Z,22
2022-11-05T21:09:01.275Z,22
2022-11-05T21:37:29.067Z,21
2022-11-05T22:05:59.707Z,21
2022-11-05T22:34:29.952Z,21
2022-11-05T23:02:59.184Z,21
2022-11-05T23:31:24.501Z,20
2022-11-05T23:59:54.352Z,15
